Terminal Aerodrome Forecast
Issued by NWS

Home | Current Version | Previous Version | Text Only | Print | Product List | Glossary On
Versions: 1 2 3 4 5 6 7 8 9 10 11 12 13 14 15 16 17 18 19
000
FTPA31 PHFO 162331
TAFHNY
TAF
PHNY 162331Z 1700/1724 04025G35KT P6SM FEW020 SCT040
     FM170500 05020G28KT P6SM FEW020 SCT040
     FM171900 02025G35KT P6SM FEW025 SCT040=

USA.gov is the U.S. government's official web portal to all federal, state and local government web resources and services.